Time;durP1;ratioP1;P1;durP2;ratioP2;P2;SDS_P1;SDS_P2;PMS_P1;PMS_P2;Temp;Humidity;BMP_temperature;BMP_pressure;BME280_temperature;BME280_humidity;BME280_pressure;Samples;Min_cycle;Max_cycle;Signal;HPM_P1;HPM_P2
2022/11/17 00:02:25;;;;;;;6.80;1.83;;;10.50;99.90;;;;;;5050539;28;20029;-54
2022/11/17 00:04:51;;;;;;;4.70;1.53;;;10.40;99.90;;;;;;5051204;28;20055;-56
2022/11/17 00:07:16;;;;;;;7.50;1.60;;;10.40;99.90;;;;;;5049941;28;20413;-53
2022/11/17 00:09:42;;;;;;;3.93;1.20;;;10.40;99.90;;;;;;5050589;28;20087;-53
2022/11/17 00:14:52;;;;;;;6.17;1.30;;;10.40;99.90;;;;;;5050960;28;20033;-54
2022/11/17 00:17:18;;;;;;;4.87;1.80;;;10.40;99.90;;;;;;5050096;28;20392;-57
2022/11/17 00:22:31;;;;;;;6.47;1.60;;;10.40;99.90;;;;;;5050106;28;20032;-55
2022/11/17 00:24:57;;;;;;;9.13;1.73;;;10.30;99.90;;;;;;5050844;28;20060;-56
2022/11/17 00:27:23;;;;;;;8.90;1.80;;;10.30;99.90;;;;;;5050159;28;20080;-54
2022/11/17 00:29:49;;;;;;;5.87;1.63;;;10.30;99.90;;;;;;5050648;28;20104;-57
2022/11/17 00:35:01;;;;;;;7.93;1.67;;;10.30;99.90;;;;;;5050608;28;20037;-55
2022/11/17 00:37:28;;;;;;;6.53;1.50;;;10.30;99.90;;;;;;5049376;28;20032;-54
2022/11/17 00:39:54;;;;;;;6.73;1.30;;;10.30;99.90;;;;;;5050000;28;20578;-52
2022/11/17 00:42:20;;;;;;;4.73;1.47;;;10.30;99.90;;;;;;5050183;28;20029;-55
2022/11/17 00:44:46;;;;;;;5.07;1.33;;;10.30;99.90;;;;;;5050552;28;20075;-57
2022/11/17 00:47:11;;;;;;;4.53;1.33;;;10.40;99.90;;;;;;5050122;28;20044;-53
2022/11/17 00:49:37;;;;;;;6.50;1.07;;;10.40;99.90;;;;;;5049681;28;20033;-54
2022/11/17 00:52:03;;;;;;;7.27;1.70;;;10.40;99.90;;;;;;5049430;28;20033;-54
2022/11/17 00:54:29;;;;;;;5.73;1.40;;;10.40;99.90;;;;;;5050061;28;20099;-55
2022/11/17 00:56:54;;;;;;;4.33;1.10;;;10.30;99.90;;;;;;5049798;28;20111;-54
2022/11/17 00:59:20;;;;;;;5.93;1.27;;;10.30;99.90;;;;;;5049927;28;20033;-56
2022/11/17 01:01:46;;;;;;;5.10;1.10;;;10.30;99.90;;;;;;5050444;28;20040;-56
2022/11/17 01:04:14;;;;;;;3.40;1.20;;;10.20;99.90;;;;;;5049997;28;20036;-54
2022/11/17 01:06:42;;;;;;;6.60;1.00;;;10.20;99.90;;;;;;5049299;28;20037;-56
2022/11/17 01:09:16;;;;;;;6.63;1.40;;;10.20;99.90;;;;;;5049868;28;20060;-56
2022/11/17 01:11:43;;;;;;;4.50;0.83;;;10.20;99.90;;;;;;5049848;28;20478;-56
2022/11/17 01:14:16;;;;;;;2.43;0.90;;;10.20;99.90;;;;;;5050004;28;20033;-56
2022/11/17 01:16:41;;;;;;;4.83;0.83;;;10.30;99.90;;;;;;5049744;28;20100;-55
2022/11/17 01:19:08;;;;;;;6.13;1.03;;;10.30;99.90;;;;;;5049215;28;20529;-55
2022/11/17 01:21:34;;;;;;;1.50;0.67;;;10.30;99.90;;;;;;5048506;28;20078;-52
2022/11/17 01:24:01;;;;;;;3.10;1.10;;;10.30;99.90;;;;;;5049865;28;20056;-54
2022/11/17 01:26:30;;;;;;;5.50;1.60;;;10.30;99.90;;;;;;5049527;28;20288;-55
2022/11/17 01:28:57;;;;;;;5.50;1.02;;;10.20;99.90;;;;;;5049490;28;20110;-55
2022/11/17 01:31:28;;;;;;;5.80;1.20;;;10.20;99.90;;;;;;5049423;28;20045;-55
2022/11/17 01:33:54;;;;;;;7.10;1.40;;;10.20;99.90;;;;;;5049119;28;20048;-54
2022/11/17 01:36:23;;;;;;;4.83;1.23;;;10.20;99.90;;;;;;5048568;28;20043;-55
2022/11/17 01:38:49;;;;;;;7.13;1.25;;;10.20;99.90;;;;;;5049286;28;20051;-54
2022/11/17 01:41:21;;;;;;;3.73;0.80;;;10.20;99.90;;;;;;5049251;28;20029;-53
2022/11/17 01:43:47;;;;;;;5.97;1.90;;;10.20;99.90;;;;;;5049467;28;20033;-56
2022/11/17 01:46:19;;;;;;;6.23;1.40;;;10.20;99.90;;;;;;5049321;28;20112;-55
2022/11/17 01:48:46;;;;;;;3.27;1.10;;;10.10;99.90;;;;;;5048650;28;20052;-55
2022/11/17 01:51:15;;;;;;;4.13;1.07;;;10.20;99.90;;;;;;5048547;28;20110;-56
2022/11/17 01:53:43;;;;;;;6.22;1.10;;;10.10;99.90;;;;;;5049411;28;20060;-58
2022/11/17 01:56:18;;;;;;;3.58;0.90;;;10.10;99.90;;;;;;5049366;28;20192;-52
2022/11/17 01:58:51;;;;;;;4.67;1.03;;;10.10;99.90;;;;;;5049229;28;20029;-55
2022/11/17 02:01:16;;;;;;;4.63;1.33;;;10.00;99.90;;;;;;5048965;28;20032;-56
2022/11/17 02:03:45;;;;;;;3.90;1.23;;;10.10;99.90;;;;;;5049098;28;20663;-57
2022/11/17 02:06:22;;;;;;;3.10;1.10;;;10.00;99.90;;;;;;5048753;28;20504;-57
2022/11/17 02:08:50;;;;;;;6.87;1.47;;;10.00;99.90;;;;;;5049253;28;20650;-56
2022/11/17 02:11:18;;;;;;;7.83;1.60;;;10.00;99.90;;;;;;5048809;28;20040;-56
2022/11/17 02:13:44;;;;;;;4.73;1.10;;;10.10;99.90;;;;;;5048958;28;20138;-57
2022/11/17 02:16:12;;;;;;;6.93;1.70;;;10.10;99.90;;;;;;5049092;28;20118;-56
2022/11/17 02:18:39;;;;;;;5.63;1.23;;;10.10;99.90;;;;;;5048500;28;20120;-58
2022/11/17 02:21:24;;;;;;;4.43;1.13;;;10.10;99.90;;;;;;5048398;28;20370;-56
2022/11/17 02:24:18;;;;;;;2.73;0.90;;;10.10;99.90;;;;;;5049070;28;20482;-57
2022/11/17 02:27:24;;;;;;;3.53;1.10;;;10.20;99.90;;;;;;5048729;28;20454;-56
2022/11/17 02:30:05;;;;;;;6.23;1.60;;;10.10;99.90;;;;;;5047957;28;20052;-56
2022/11/17 02:33:18;;;;;;;6.63;1.30;;;10.10;99.90;;;;;;5049625;28;20029;-57
2022/11/17 02:36:01;;;;;;;5.50;1.20;;;10.20;99.90;;;;;;5052149;28;20025;-56
2022/11/17 02:38:33;;;;;;;3.63;1.00;;;10.20;99.90;;;;;;5052628;28;20036;-56
2022/11/17 02:41:15;;;;;;;4.63;1.10;;;10.20;99.90;;;;;;5052749;28;20037;-56
2022/11/17 02:44:03;;;;;;;4.03;1.23;;;10.30;99.90;;;;;;5052891;28;20060;-56
2022/11/17 02:46:38;;;;;;;4.67;1.20;;;10.20;99.90;;;;;;5052705;28;20076;-57
2022/11/17 02:49:13;;;;;;;4.70;1.40;;;10.20;99.90;;;;;;5052057;28;20028;-56
2022/11/17 02:52:07;;;;;;;5.67;1.30;;;10.30;99.90;;;;;;5052198;28;20033;-57
2022/11/17 02:54:33;;;;;;;5.77;1.40;;;10.30;99.90;;;;;;5052762;28;20055;-55
2022/11/17 02:56:59;;;;;;;4.60;1.63;;;10.30;99.90;;;;;;5052485;28;20552;-56
2022/11/17 02:59:40;;;;;;;6.20;1.20;;;10.20;99.90;;;;;;5052462;28;20075;-57
2022/11/17 03:02:37;;;;;;;4.50;1.30;;;10.20;99.90;;;;;;5052535;28;20036;-56
2022/11/17 03:05:15;;;;;;;3.63;1.07;;;10.20;99.90;;;;;;5052259;28;20494;-56
2022/11/17 03:07:57;;;;;;;3.17;1.20;;;10.20;99.90;;;;;;5051746;28;20029;-57
2022/11/17 03:10:51;;;;;;;3.33;1.00;;;10.20;99.90;;;;;;5052360;28;20439;-55
2022/11/17 03:13:32;;;;;;;2.03;0.90;;;10.20;99.90;;;;;;5052423;28;20102;-57
2022/11/17 03:16:23;;;;;;;5.73;1.30;;;10.20;99.90;;;;;;5052172;28;20574;-53
2022/11/17 03:18:59;;;;;;;4.00;1.40;;;10.20;99.90;;;;;;5051654;28;20135;-57
2022/11/17 03:21:32;;;;;;;1.67;1.00;;;10.10;99.90;;;;;;5051398;28;20608;-55
2022/11/17 03:24:05;;;;;;;2.90;1.00;;;10.10;99.90;;;;;;5052185;28;20456;-56
2022/11/17 03:26:43;;;;;;;3.37;0.73;;;10.10;99.90;;;;;;5051698;28;20078;-57
2022/11/17 03:29:13;;;;;;;3.03;1.20;;;10.10;99.90;;;;;;5051750;28;20060;-55
2022/11/17 03:31:42;;;;;;;3.87;1.43;;;10.10;99.90;;;;;;5051566;28;20033;-58
2022/11/17 03:34:13;;;;;;;5.82;1.40;;;10.10;99.90;;;;;;5051692;28;20398;-57
2022/11/17 03:36:42;;;;;;;6.33;1.30;;;10.10;99.90;;;;;;5051251;28;20123;-56
2022/11/17 03:39:16;;;;;;;3.80;1.30;;;10.10;99.90;;;;;;5051695;28;20029;-57
2022/11/17 03:41:46;;;;;;;3.93;1.30;;;10.10;99.90;;;;;;5051905;28;20029;-57
2022/11/17 03:44:15;;;;;;;4.87;1.30;;;10.10;99.90;;;;;;5051380;28;20041;-56
2022/11/17 03:46:42;;;;;;;2.40;1.20;;;10.00;99.90;;;;;;5051481;28;20040;-57
2022/11/17 03:49:42;;;;;;;5.53;1.20;;;10.00;99.90;;;;;;5051066;28;20037;-58
2022/11/17 03:52:07;;;;;;;;;;;10.00;99.90;;;;;;5051471;28;20040;-55
2022/11/17 03:54:35;;;;;;;2.70;1.20;;;10.00;99.90;;;;;;5051812;28;20253;-56
2022/11/17 03:57:28;;;;;;;4.07;1.20;;;10.10;99.90;;;;;;5051074;28;20053;-56
2022/11/17 03:59:58;;;;;;;3.03;0.90;;;10.10;99.90;;;;;;5051107;28;20124;-56
2022/11/17 04:02:25;;;;;;;3.70;1.33;;;10.10;99.90;;;;;;5051260;28;20029;-54
2022/11/17 04:05:06;;;;;;;2.47;1.03;;;10.20;99.90;;;;;;5051008;28;20358;-56
2022/11/17 04:07:35;;;;;;;3.83;1.60;;;10.20;99.90;;;;;;5050515;28;20037;-56
2022/11/17 04:10:03;;;;;;;;;;;10.10;99.90;;;;;;5061974;22;20369;-52
2022/11/17 04:17:57;;;;;;;3.07;1.20;;;10.20;99.90;;;;;;5029935;28;20036;-55
2022/11/17 04:20:23;;;;;;;2.00;0.90;;;10.20;99.90;;;;;;5030485;28;20029;-53
2022/11/17 04:23:05;;;;;;;2.60;0.90;;;10.20;99.90;;;;;;5028349;28;20033;-52
2022/11/17 04:28:37;;;;;;;3.13;0.93;;;10.20;99.90;;;;;;5030761;28;20537;-53
2022/11/17 04:31:21;;;;;;;3.00;0.93;;;10.20;99.90;;;;;;5030482;28;20029;-49
2022/11/17 04:33:55;;;;;;;3.47;1.03;;;10.20;99.90;;;;;;5030732;28;20456;-51
2022/11/17 04:36:27;;;;;;;1.97;0.80;;;10.20;99.90;;;;;;5030008;28;20119;-50
2022/11/17 04:38:55;;;;;;;3.00;1.00;;;10.30;99.90;;;;;;5030241;28;20021;-54
2022/11/17 04:44:08;;;;;;;3.20;1.00;;;10.30;99.90;;;;;;5030024;28;20536;-52
2022/11/17 04:46:36;;;;;;;5.50;1.40;;;10.30;99.90;;;;;;5030121;28;20030;-52
2022/11/17 04:49:02;;;;;;;7.57;1.20;;;10.20;99.90;;;;;;5029734;28;20064;-54
2022/11/17 04:51:29;;;;;;;1.70;0.83;;;10.20;99.90;;;;;;5029326;28;20068;-51
2022/11/17 04:53:55;;;;;;;4.43;1.17;;;10.20;99.90;;;;;;5030080;28;20040;-54
2022/11/17 04:56:22;;;;;;;2.17;1.00;;;10.20;99.90;;;;;;5029264;28;20025;-55
2022/11/17 04:58:49;;;;;;;4.67;0.97;;;10.20;99.90;;;;;;5030245;28;20025;-51
2022/11/17 05:01:17;;;;;;;6.73;1.67;;;10.30;99.90;;;;;;5030001;28;20040;-55
2022/11/17 05:03:50;;;;;;;2.67;1.30;;;10.30;99.90;;;;;;5029730;28;20033;-52
2022/11/17 05:06:22;;;;;;;6.00;1.10;;;10.20;99.90;;;;;;5029601;28;20132;-56
2022/11/17 05:08:49;;;;;;;3.00;1.00;;;10.20;99.90;;;;;;5030106;28;20029;-53
2022/11/17 05:14:01;;;;;;;3.27;1.10;;;10.30;99.90;;;;;;5029913;28;20037;-53
2022/11/17 05:19:17;;;;;;;5.80;1.00;;;10.50;99.90;;;;;;5030024;28;20169;-54
2022/11/17 05:21:43;;;;;;;3.93;1.10;;;10.40;99.90;;;;;;5029371;28;20465;-55
2022/11/17 05:24:09;;;;;;;3.57;1.20;;;10.50;99.90;;;;;;5029795;28;20061;-53
2022/11/17 05:26:36;;;;;;;2.90;0.90;;;10.50;99.90;;;;;;5029970;28;20037;-53
2022/11/17 05:29:04;;;;;;;4.70;1.07;;;10.50;99.90;;;;;;5029789;28;20033;-52
2022/11/17 05:31:30;;;;;;;2.40;1.00;;;10.40;99.90;;;;;;5029475;28;20492;-52
2022/11/17 05:33:56;;;;;;;2.97;1.20;;;10.40;99.90;;;;;;5029084;28;20029;-51
2022/11/17 05:36:23;;;;;;;3.03;1.33;;;10.30;99.90;;;;;;5028552;28;20227;-55
2022/11/17 05:38:50;;;;;;;3.27;1.20;;;10.30;99.90;;;;;;5029179;28;20120;-51
2022/11/17 05:41:16;;;;;;;7.60;1.50;;;10.20;99.90;;;;;;5029154;28;20037;-54
2022/11/17 05:43:42;;;;;;;4.17;1.10;;;10.20;99.90;;;;;;5029357;28;20033;-55
2022/11/17 05:46:08;;;;;;;4.80;1.13;;;10.20;99.90;;;;;;5027762;28;20462;-52
2022/11/17 05:48:34;;;;;;;3.37;1.23;;;10.20;99.90;;;;;;5028593;28;20079;-56
2022/11/17 05:51:01;;;;;;;5.13;1.43;;;10.20;99.90;;;;;;5029731;28;20037;-52
2022/11/17 05:53:28;;;;;;;5.80;1.40;;;10.10;99.90;;;;;;5028904;28;20028;-53
2022/11/17 05:56:22;;;;;;;4.70;1.20;;;10.10;99.90;;;;;;5027438;28;20021;-54
2022/11/17 05:58:52;;;;;;;5.70;1.83;;;10.10;99.90;;;;;;5028470;28;20030;-56
2022/11/17 06:01:19;;;;;;;4.00;1.38;;;10.10;99.90;;;;;;5029624;28;20037;-55
2022/11/17 06:03:51;;;;;;;6.67;2.40;;;10.10;99.90;;;;;;5030502;28;20136;-57
2022/11/17 06:06:17;;;;;;;4.87;2.03;;;10.10;99.90;;;;;;5029509;28;20116;-56
2022/11/17 06:08:42;;;;;;;9.70;3.63;;;10.10;99.90;;;;;;5030301;28;20125;-57
2022/11/17 06:11:08;;;;;;;6.60;1.47;;;10.10;99.90;;;;;;5030024;28;20156;-56
2022/11/17 06:13:34;;;;;;;4.47;0.80;;;10.20;99.90;;;;;;5030577;28;20548;-56
2022/11/17 06:16:02;;;;;;;4.20;1.30;;;10.20;99.90;;;;;;5030625;28;20108;-57
2022/11/17 06:18:37;;;;;;;4.80;1.20;;;10.30;99.90;;;;;;5030319;28;20026;-56
2022/11/17 06:21:04;;;;;;;7.43;1.53;;;10.20;99.90;;;;;;5030397;28;20103;-56
2022/11/17 06:23:32;;;;;;;6.07;1.57;;;10.30;99.90;;;;;;5030329;28;20026;-56
2022/11/17 06:26:01;;;;;;;5.33;1.67;;;10.30;99.90;;;;;;5030269;28;20458;-55
2022/11/17 06:28:30;;;;;;;4.23;1.30;;;10.30;99.90;;;;;;5030045;28;20506;-55
2022/11/17 06:30:56;;;;;;;5.37;1.30;;;10.30;99.90;;;;;;5030073;28;20030;-56
2022/11/17 06:33:22;;;;;;;3.50;1.27;;;10.40;99.90;;;;;;5030431;28;20052;-57
2022/11/17 06:35:48;;;;;;;2.10;0.97;;;10.40;99.90;;;;;;5030413;28;20025;-55
2022/11/17 06:38:14;;;;;;;2.53;0.90;;;10.40;99.90;;;;;;5029949;28;20029;-57
2022/11/17 06:40:40;;;;;;;2.83;1.17;;;10.40;99.90;;;;;;5030163;28;20037;-58
2022/11/17 06:43:08;;;;;;;5.63;1.30;;;10.40;99.90;;;;;;5030258;28;20056;-56
2022/11/17 06:45:39;;;;;;;5.30;1.40;;;10.40;99.90;;;;;;5030257;28;20037;-57
2022/11/17 06:48:06;;;;;;;7.30;1.33;;;10.40;99.90;;;;;;5030056;28;20037;-56
2022/11/17 06:50:32;;;;;;;3.47;1.30;;;10.40;99.90;;;;;;5029831;28;20067;-57
2022/11/17 06:53:00;;;;;;;5.67;1.33;;;10.40;99.90;;;;;;5030100;28;20454;-57
2022/11/17 06:55:26;;;;;;;7.43;1.63;;;10.40;99.90;;;;;;5030141;28;20036;-55
2022/11/17 06:58:01;;;;;;;5.93;1.47;;;10.40;99.90;;;;;;5030106;28;20032;-54
2022/11/17 07:00:28;;;;;;;4.83;1.30;;;10.40;99.90;;;;;;5029860;28;20280;-54
2022/11/17 07:03:06;;;;;;;4.87;0.93;;;10.40;99.90;;;;;;5030117;28;20029;-54
2022/11/17 07:05:33;;;;;;;3.03;1.00;;;10.50;99.90;;;;;;5030069;28;20056;-55
2022/11/17 07:08:01;;;;;;;8.40;1.40;;;10.50;99.90;;;;;;5029859;28;20029;-55
2022/11/17 07:10:27;;;;;;;2.43;0.97;;;10.50;99.90;;;;;;5029614;28;20033;-54
2022/11/17 07:12:53;;;;;;;5.93;1.17;;;10.50;99.90;;;;;;5029986;28;20040;-56
2022/11/17 07:15:19;;;;;;;5.73;1.17;;;10.50;99.90;;;;;;5030087;28;20026;-55
2022/11/17 07:17:45;;;;;;;3.77;1.60;;;10.50;99.90;;;;;;5030018;28;20021;-54
2022/11/17 07:20:12;;;;;;;4.50;1.30;;;10.50;99.90;;;;;;5033527;28;20389;-56
2022/11/17 07:22:37;;;;;;;4.33;1.30;;;10.60;99.90;;;;;;5033479;28;20467;-55
2022/11/17 07:25:04;;;;;;;5.00;1.20;;;10.60;99.90;;;;;;5033512;28;20029;-55
2022/11/17 07:27:30;;;;;;;6.33;1.13;;;10.60;99.90;;;;;;5033233;28;20063;-54
2022/11/17 07:29:56;;;;;;;5.47;1.47;;;10.70;99.90;;;;;;5033436;28;20065;-56
2022/11/17 07:32:22;;;;;;;4.90;1.20;;;10.70;99.90;;;;;;5033209;28;20443;-55
2022/11/17 07:34:48;;;;;;;4.87;1.10;;;10.70;99.90;;;;;;5033569;28;20039;-54
2022/11/17 07:37:14;;;;;;;4.00;1.10;;;10.70;99.90;;;;;;5033016;28;20021;-54
2022/11/17 07:39:40;;;;;;;6.17;1.60;;;10.60;99.90;;;;;;5033050;28;20034;-54
2022/11/17 07:42:06;;;;;;;7.67;2.00;;;10.70;99.90;;;;;;5033066;28;20561;-56
2022/11/17 07:44:31;;;;;;;4.20;1.23;;;10.70;99.90;;;;;;5033099;28;20036;-56
2022/11/17 07:46:57;;;;;;;4.03;1.10;;;10.70;99.90;;;;;;5032784;28;20034;-57
2022/11/17 07:49:23;;;;;;;7.37;1.53;;;10.70;99.90;;;;;;5032921;28;20080;-54
2022/11/17 07:51:48;;;;;;;4.90;0.90;;;10.80;99.90;;;;;;5032912;28;20728;-57
2022/11/17 07:54:14;;;;;;;3.03;0.80;;;10.80;99.90;;;;;;5033112;28;20498;-52
2022/11/17 07:56:40;;;;;;;2.63;0.90;;;10.80;99.90;;;;;;5032694;28;20021;-56
2022/11/17 07:59:06;;;;;;;4.73;0.90;;;10.70;99.90;;;;;;5032645;28;20466;-54
2022/11/17 08:01:31;;;;;;;2.97;0.90;;;10.70;99.90;;;;;;5032664;28;20052;-54
2022/11/17 08:03:57;;;;;;;4.93;0.97;;;10.70;99.90;;;;;;5032820;28;20029;-55
2022/11/17 08:06:23;;;;;;;3.73;1.17;;;10.70;99.90;;;;;;5032542;28;20049;-55
2022/11/17 08:08:50;;;;;;;4.97;1.20;;;10.60;99.90;;;;;;5032432;28;20029;-55
2022/11/17 08:11:18;;;;;;;3.30;0.80;;;10.60;99.90;;;;;;5032370;28;20091;-55
2022/11/17 08:13:44;;;;;;;5.30;1.20;;;10.60;99.90;;;;;;5032586;28;20040;-55
2022/11/17 08:16:11;;;;;;;2.47;0.87;;;10.60;99.90;;;;;;5032386;28;20478;-55
2022/11/17 08:18:37;;;;;;;3.93;0.97;;;10.60;99.90;;;;;;5032319;28;20079;-55
2022/11/17 08:21:09;;;;;;;5.60;1.20;;;10.60;99.90;;;;;;5032388;28;20436;-55
2022/11/17 08:23:36;;;;;;;6.03;1.10;;;10.60;99.90;;;;;;5032341;28;20036;-55
2022/11/17 08:26:03;;;;;;;3.33;1.23;;;10.60;99.90;;;;;;5032314;28;20038;-56
2022/11/17 08:28:29;;;;;;;3.80;1.00;;;10.60;99.90;;;;;;5032091;28;20033;-54
2022/11/17 08:30:55;;;;;;;4.90;1.00;;;10.60;99.90;;;;;;5032189;28;20041;-55
2022/11/17 08:33:21;;;;;;;3.40;0.67;;;10.60;99.90;;;;;;5032367;28;20052;-57
2022/11/17 08:35:46;;;;;;;3.47;0.80;;;10.50;99.90;;;;;;5032258;28;20033;-54
2022/11/17 08:38:16;;;;;;;4.33;0.77;;;10.50;99.90;;;;;;5031965;28;20371;-55
2022/11/17 08:40:41;;;;;;;;;;;10.50;99.90;;;;;;5032354;28;20025;-55
2022/11/17 08:43:07;;;;;;;4.37;1.00;;;10.50;99.90;;;;;;5031885;28;19909;-55
2022/11/17 08:45:33;;;;;;;4.27;0.80;;;10.50;99.90;;;;;;5032003;28;20068;-56
2022/11/17 08:47:58;;;;;;;5.93;1.20;;;10.50;99.90;;;;;;5031797;28;20036;-54
2022/11/17 08:50:24;;;;;;;4.50;0.80;;;10.50;99.90;;;;;;5031536;28;20116;-54
2022/11/17 08:52:51;;;;;;;4.53;0.90;;;10.50;99.90;;;;;;5032262;28;20492;-55
2022/11/17 08:55:17;;;;;;;5.10;1.20;;;10.50;99.90;;;;;;5032198;28;20458;-55
2022/11/17 08:57:43;;;;;;;4.10;0.90;;;10.50;99.90;;;;;;5031480;28;20021;-56
2022/11/17 09:00:10;;;;;;;2.60;0.80;;;10.60;99.90;;;;;;5031696;28;20037;-56
2022/11/17 09:02:39;;;;;;;3.13;0.90;;;10.60;99.90;;;;;;5031804;28;20397;-54
2022/11/17 09:05:05;;;;;;;4.68;1.30;;;10.60;99.90;;;;;;5031627;28;20030;-55
2022/11/17 09:07:34;;;;;;;4.97;1.10;;;10.60;99.90;;;;;;5031335;28;20116;-56
2022/11/17 09:10:00;;;;;;;2.83;1.00;;;10.70;99.90;;;;;;5031083;28;21393;-55
2022/11/17 09:12:26;;;;;;;2.50;0.70;;;10.70;99.90;;;;;;5031338;28;20033;-57
2022/11/17 09:14:52;;;;;;;5.70;1.00;;;10.70;99.90;;;;;;5031470;28;20021;-56
2022/11/17 09:17:18;;;;;;;4.30;0.87;;;10.80;99.90;;;;;;5031390;28;20483;-56
2022/11/17 09:19:43;;;;;;;4.43;0.73;;;10.90;99.90;;;;;;5031023;28;20025;-56
2022/11/17 09:22:09;;;;;;;2.73;0.90;;;10.90;99.90;;;;;;5031349;28;20121;-54
2022/11/17 09:24:35;;;;;;;5.07;0.90;;;10.90;99.90;;;;;;5031365;28;20025;-56
2022/11/17 09:27:02;;;;;;;4.97;0.97;;;11.00;99.90;;;;;;5030783;28;20073;-55
2022/11/17 09:29:28;;;;;;;4.80;1.00;;;11.20;99.90;;;;;;5030944;28;20033;-55
2022/11/17 09:31:54;;;;;;;4.87;1.13;;;11.20;99.90;;;;;;5031010;28;20038;-54
2022/11/17 09:34:20;;;;;;;4.33;0.90;;;11.30;99.90;;;;;;5031024;28;20036;-55
2022/11/17 09:36:49;;;;;;;3.73;0.90;;;11.30;99.90;;;;;;5030882;28;20029;-55
2022/11/17 09:39:15;;;;;;;2.50;0.90;;;11.40;99.90;;;;;;5031058;28;20041;-56
2022/11/17 09:41:46;;;;;;;3.57;1.03;;;11.40;99.90;;;;;;5030386;28;20033;-54
2022/11/17 09:44:27;;;;;;;2.80;1.10;;;11.40;99.90;;;;;;5031092;28;20037;-54
2022/11/17 09:47:24;;;;;;;2.80;0.83;;;11.50;99.90;;;;;;5030651;28;20037;-53
2022/11/17 09:50:10;;;;;;;4.30;1.00;;;11.60;99.90;;;;;;5030436;28;20441;-56
2022/11/17 09:53:08;;;;;;;3.00;0.90;;;11.60;99.90;;;;;;5026522;28;20536;-56
2022/11/17 09:55:45;;;;;;;5.75;0.90;;;11.60;99.90;;;;;;5029384;28;20121;-54
2022/11/17 09:58:24;;;;;;;3.93;1.10;;;11.60;99.90;;;;;;5030458;28;20033;-53
2022/11/17 10:00:51;;;;;;;5.43;0.97;;;11.60;99.90;;;;;;5030353;28;20030;-56
2022/11/17 10:03:20;;;;;;;4.87;0.93;;;11.60;99.90;;;;;;5030920;28;20374;-55
2022/11/17 10:05:46;;;;;;;3.07;0.80;;;11.60;99.90;;;;;;5030583;28;20030;-56
2022/11/17 10:08:17;;;;;;;5.30;1.60;;;11.70;99.90;;;;;;5030340;28;20025;-56
2022/11/17 10:10:49;;;;;;;3.90;0.87;;;11.70;99.90;;;;;;5047155;22;20069;-52
2022/11/17 10:13:23;;;;;;;3.13;0.73;;;11.70;99.90;;;;;;5050405;28;20494;-54
2022/11/17 10:15:56;;;;;;;2.07;0.80;;;11.90;99.90;;;;;;5050411;28;20056;-52
2022/11/17 10:18:22;;;;;;;4.73;0.80;;;11.90;99.90;;;;;;5050189;28;20032;-51
2022/11/17 10:20:47;;;;;;;5.30;0.73;;;12.00;99.90;;;;;;5050087;28;20029;-54
2022/11/17 10:23:17;;;;;;;4.20;0.80;;;12.10;99.90;;;;;;5050222;28;20120;-55
2022/11/17 10:25:46;;;;;;;;;;;12.10;99.90;;;;;;5050889;28;20033;-52
2022/11/17 10:28:25;;;;;;;2.03;0.50;;;12.20;99.90;;;;;;5050096;28;19908;-54
2022/11/17 10:31:17;;;;;;;5.13;0.80;;;12.10;99.90;;;;;;5049925;28;20119;-51
2022/11/17 10:33:46;;;;;;;2.97;0.90;;;12.20;99.90;;;;;;5047692;28;20099;-55
2022/11/17 10:36:27;;;;;;;2.22;0.60;;;12.30;99.90;;;;;;5050305;28;20394;-54
2022/11/17 10:38:55;;;;;;;1.77;0.60;;;12.30;99.90;;;;;;5050145;28;20021;-55
2022/11/17 10:41:44;;;;;;;4.18;0.90;;;12.40;99.90;;;;;;5050540;28;20629;-54
2022/11/17 10:44:26;;;;;;;2.28;0.63;;;12.40;99.90;;;;;;5050292;28;20025;-53
2022/11/17 10:46:57;;;;;;;1.55;0.40;;;12.40;99.90;;;;;;5050137;28;20028;-55
2022/11/17 10:49:26;;;;;;;4.55;0.90;;;12.40;99.90;;;;;;5049865;28;20039;-53
2022/11/17 10:52:14;;;;;;;1.55;0.32;;;12.40;99.90;;;;;;5049936;28;20029;-54
2022/11/17 10:54:39;;;;;;;1.75;0.60;;;12.50;99.90;;;;;;5053577;28;20087;-53
2022/11/17 10:57:11;;;;;;;2.58;0.77;;;12.50;99.90;;;;;;5053772;28;20025;-54
2022/11/17 11:00:20;;;;;;;2.38;0.70;;;12.70;99.90;;;;;;5053700;28;20036;-53
2022/11/17 11:02:46;;;;;;;2.47;0.50;;;12.80;99.90;;;;;;5046876;28;20073;-54
2022/11/17 11:05:14;;;;;;;3.22;0.75;;;12.80;99.90;;;;;;5053830;28;20053;-56
2022/11/17 11:07:40;;;;;;;2.70;0.50;;;12.80;99.90;;;;;;5053812;28;20032;-55
2022/11/17 11:10:12;;;;;;;1.83;0.40;;;12.70;99.90;;;;;;5053322;28;20047;-55
2022/11/17 11:12:47;;;;;;;4.25;0.88;;;12.60;99.90;;;;;;5053483;28;20068;-55
2022/11/17 11:15:19;;;;;;;2.33;0.50;;;12.60;99.90;;;;;;5053551;28;20543;-56
2022/11/17 11:17:44;;;;;;;5.28;0.80;;;12.50;99.90;;;;;;5053221;28;20520;-55
2022/11/17 11:20:19;;;;;;;3.65;0.70;;;12.40;99.90;;;;;;5053152;28;20049;-50
2022/11/17 11:23:03;;;;;;;2.55;0.60;;;12.50;99.90;;;;;;5053453;28;20024;-55
2022/11/17 11:25:50;;;;;;;5.73;1.47;;;12.40;99.90;;;;;;5053348;28;20036;-53
2022/11/17 11:28:16;;;;;;;5.32;0.73;;;12.40;99.90;;;;;;5053194;28;20040;-51
2022/11/17 11:31:25;;;;;;;2.60;0.68;;;12.50;99.90;;;;;;5053047;28;20028;-53
2022/11/17 11:33:55;;;;;;;2.97;0.50;;;12.50;99.90;;;;;;5052279;28;20551;-51
2022/11/17 11:36:52;;;;;;;4.05;0.82;;;12.50;99.90;;;;;;5053036;28;20470;-55
2022/11/17 11:39:40;;;;;;;2.10;0.47;;;12.50;99.90;;;;;;5053001;28;20036;-55
2022/11/17 11:42:37;;;;;;;0.98;0.38;;;12.50;99.90;;;;;;5052945;28;20037;-55
2022/11/17 11:45:23;;;;;;;2.42;0.82;;;12.50;99.90;;;;;;5053088;28;20481;-54
2022/11/17 11:48:10;;;;;;;3.10;0.50;;;12.50;99.90;;;;;;5052800;28;20037;-55
2022/11/17 11:50:50;;;;;;;3.92;0.70;;;12.50;99.90;;;;;;5052335;28;20029;-56
2022/11/17 11:53:31;;;;;;;4.38;0.70;;;12.50;99.90;;;;;;5052797;28;20561;-54
2022/11/17 11:56:12;;;;;;;2.57;0.70;;;12.50;99.90;;;;;;5052765;28;20025;-55
2022/11/17 11:59:00;;;;;;;1.42;0.40;;;12.40;99.90;;;;;;5052380;28;20469;-55
2022/11/17 12:01:30;;;;;;;2.30;0.50;;;12.40;99.90;;;;;;5052612;28;20111;-52
2022/11/17 12:04:12;;;;;;;1.97;0.83;;;12.40;99.90;;;;;;5052339;28;20474;-55
2022/11/17 12:06:52;;;;;;;3.17;0.75;;;12.40;99.90;;;;;;5052458;28;20037;-55
2022/11/17 12:09:37;;;;;;;3.60;0.97;;;12.40;99.90;;;;;;5052320;28;20501;-55
2022/11/17 12:12:14;;;;;;;4.67;0.63;;;12.30;99.90;;;;;;5052266;28;20029;-54
2022/11/17 12:15:20;;;;;;;5.30;0.63;;;12.40;99.90;;;;;;5052531;28;20033;-55
2022/11/17 12:17:54;;;;;;;3.63;0.50;;;12.40;99.90;;;;;;5041719;28;20303;-54
2022/11/17 12:20:34;;;;;;;2.63;0.60;;;12.40;99.90;;;;;;5052440;28;20071;-52
2022/11/17 12:23:18;;;;;;;4.90;1.23;;;12.40;99.90;;;;;;5052375;28;20044;-54
2022/11/17 12:25:50;;;;;;;3.53;1.10;;;12.40;99.90;;;;;;5052333;28;20029;-53
2022/11/17 12:28:25;;;;;;;3.20;0.67;;;12.40;99.90;;;;;;5052128;28;20033;-56
2022/11/17 12:31:12;;;;;;;5.03;0.70;;;12.40;99.90;;;;;;5051824;28;20071;-54
2022/11/17 12:33:53;;;;;;;2.10;0.80;;;12.40;99.90;;;;;;5020665;28;20041;-55
2022/11/17 12:36:25;;;;;;;3.83;0.70;;;12.40;99.90;;;;;;5051921;28;20029;-53
2022/11/17 12:38:52;;;;;;;2.27;0.60;;;12.40;99.90;;;;;;5051998;28;20025;-51
2022/11/17 12:41:49;;;;;;;2.38;0.68;;;12.30;99.90;;;;;;5051872;28;20120;-52
2022/11/17 12:44:37;;;;;;;2.93;0.83;;;12.30;99.90;;;;;;5051960;28;20102;-51
2022/11/17 12:47:20;;;;;;;3.57;1.00;;;12.30;99.90;;;;;;5051546;28;20079;-54
2022/11/17 12:50:19;;;;;;;4.60;1.50;;;12.30;99.90;;;;;;5051551;28;20420;-55
2022/11/17 12:53:12;;;;;;;5.40;2.43;;;12.30;99.90;;;;;;5017744;28;20055;-53
2022/11/17 12:56:18;;;;;;;4.43;0.90;;;12.40;99.90;;;;;;5051740;28;20029;-55
2022/11/17 12:58:50;;;;;;;3.63;0.67;;;12.30;99.90;;;;;;5034370;28;20482;-56
2022/11/17 13:01:36;;;;;;;3.35;0.88;;;12.40;99.90;;;;;;5051317;28;20025;-56
2022/11/17 13:04:08;;;;;;;2.78;1.00;;;12.40;99.90;;;;;;5051507;28;20021;-56
2022/11/17 13:06:34;;;;;;;3.13;0.70;;;12.40;99.90;;;;;;5051459;28;20432;-55
2022/11/17 13:09:10;;;;;;;2.45;0.70;;;12.40;99.90;;;;;;5051427;28;20204;-55
2022/11/17 13:11:36;;;;;;;2.03;0.65;;;12.40;99.90;;;;;;5051113;28;20486;-55
2022/11/17 13:14:06;;;;;;;2.25;0.60;;;12.40;99.90;;;;;;5051296;28;20033;-55
2022/11/17 13:16:36;;;;;;;9.65;1.60;;;12.40;99.90;;;;;;5050441;28;20029;-53
2022/11/17 13:19:22;;;;;;;3.60;0.75;;;12.40;99.90;;;;;;5051048;28;20032;-54
2022/11/17 13:21:47;;;;;;;2.97;0.70;;;12.40;99.90;;;;;;5050853;28;20104;-54
2022/11/17 13:24:34;;;;;;;3.33;0.93;;;12.40;99.90;;;;;;5051082;28;20120;-54
2022/11/17 13:27:02;;;;;;;3.63;0.60;;;12.40;99.90;;;;;;5051080;28;20024;-52
2022/11/17 13:29:28;;;;;;;6.35;0.60;;;12.50;99.90;;;;;;5050997;28;20090;-52
2022/11/17 13:32:15;;;;;;;2.55;0.60;;;12.50;99.90;;;;;;5050880;28;20041;-54
2022/11/17 13:35:00;;;;;;;3.75;0.90;;;12.50;99.90;;;;;;5050952;28;20553;-55
2022/11/17 13:37:28;;;;;;;3.70;0.60;;;12.50;99.90;;;;;;5050736;28;20031;-54
2022/11/17 13:39:55;;;;;;;4.20;0.70;;;12.60;99.90;;;;;;5050696;28;20025;-54